createdAt,value
2023-02-17T00:00:58.485Z,12.30
2023-02-17T00:03:26.118Z,11.17
2023-02-17T00:05:53.442Z,12.07
2023-02-17T00:08:20.645Z,10.95
2023-02-17T00:10:56.697Z,11.20
2023-02-17T00:13:23.859Z,11.93
2023-02-17T00:15:51.112Z,10.70
2023-02-17T00:18:18.213Z,12.75
2023-02-17T00:20:45.209Z,14.95
2023-02-17T00:23:12.256Z,13.43
2023-02-17T00:25:39.777Z,11.88
2023-02-17T00:28:07.481Z,12.40
2023-02-17T00:30:34.456Z,10.65
2023-02-17T00:33:01.455Z,12.90
2023-02-17T00:35:28.494Z,15.95
2023-02-17T00:37:55.490Z,11.93
2023-02-17T00:40:22.523Z,12.93
2023-02-17T00:42:49.608Z,13.25
2023-02-17T00:45:16.957Z,13.63
2023-02-17T00:47:44.002Z,15.15
2023-02-17T00:50:11.044Z,11.38
2023-02-17T00:52:38.353Z,8.60
2023-02-17T00:55:05.915Z,11.07
2023-02-17T00:57:32.873Z,13.23
2023-02-17T00:59:59.970Z,10.13
2023-02-17T01:02:27.025Z,11.52
2023-02-17T01:04:54.474Z,12.57
2023-02-17T01:07:21.524Z,9.55
2023-02-17T01:09:48.585Z,10.57
2023-02-17T01:12:16.195Z,11.55
2023-02-17T01:14:43.263Z,15.50
2023-02-17T01:17:10.194Z,11.17
2023-02-17T01:19:37.176Z,12.93
2023-02-17T01:22:04.292Z,12.55
2023-02-17T01:24:31.247Z,11.85
2023-02-17T01:26:58.370Z,12.32
2023-02-17T01:29:27.739Z,11.77
2023-02-17T01:31:54.783Z,11.02
2023-02-17T01:34:21.902Z,11.55
2023-02-17T01:36:49.072Z,12.70
2023-02-17T01:39:16.740Z,11.85
2023-02-17T01:41:46.882Z,12.27
2023-02-17T01:44:13.882Z,14.73
2023-02-17T01:46:43.613Z,10.38
2023-02-17T01:49:35.903Z,13.68
2023-02-17T01:52:19.982Z,10.50
2023-02-17T01:54:51.957Z,11.30
2023-02-17T01:57:23.780Z,9.93
2023-02-17T01:59:51.826Z,10.93
2023-02-17T02:02:19.157Z,13.00
2023-02-17T02:04:49.718Z,10.63
2023-02-17T02:07:22.166Z,10.77
2023-02-17T02:09:56.408Z,11.55
2023-02-17T02:12:27.152Z,10.50
2023-02-17T02:14:59.206Z,12.23
2023-02-17T02:17:41.260Z,11.57
2023-02-17T02:20:08.875Z,11.03
2023-02-17T02:22:43.816Z,11.88
2023-02-17T02:25:22.761Z,11.70
2023-02-17T02:28:20.888Z,10.38
2023-02-17T02:30:59.062Z,12.52
2023-02-17T02:33:43.997Z,12.93
2023-02-17T02:36:17.974Z,13.82
2023-02-17T02:39:10.825Z,11.77
2023-02-17T02:41:42.941Z,12.32
2023-02-17T02:44:15.237Z,12.35
2023-02-17T02:46:42.265Z,12.03
2023-02-17T02:49:10.685Z,11.98
2023-02-17T02:51:47.506Z,12.82
2023-02-17T02:54:36.554Z,14.98
2023-02-17T02:57:28.317Z,16.42
2023-02-17T03:00:10.794Z,13.77
2023-02-17T03:02:37.981Z,14.02
2023-02-17T03:05:29.100Z,15.07
2023-02-17T03:08:12.617Z,11.60
2023-02-17T03:10:52.023Z,13.35
2023-02-17T03:13:20.502Z,14.50
2023-02-17T03:15:49.286Z,13.15
2023-02-17T03:18:16.385Z,12.65
2023-02-17T03:20:51.163Z,11.88
2023-02-17T03:23:18.841Z,11.07
2023-02-17T03:25:47.745Z,10.10
2023-02-17T03:28:15.343Z,13.45
2023-02-17T03:30:42.698Z,10.80
2023-02-17T03:33:11.550Z,12.35
2023-02-17T03:35:38.530Z,15.25
2023-02-17T03:38:05.624Z,12.20
2023-02-17T03:40:32.633Z,13.32
2023-02-17T03:42:59.832Z,14.48
2023-02-17T03:45:26.824Z,15.75
2023-02-17T03:47:53.843Z,15.80
2023-02-17T03:50:20.975Z,16.63
2023-02-17T03:52:47.988Z,18.10
2023-02-17T03:55:15.342Z,18.80
2023-02-17T03:57:42.364Z,18.88
2023-02-17T04:00:10.108Z,22.02
2023-02-17T04:02:44.212Z,20.47
2023-02-17T04:05:11.789Z,20.67
2023-02-17T04:07:38.959Z,21.30
2023-02-17T04:10:09.024Z,21.08
2023-02-17T04:12:36.494Z,21.55
2023-02-17T04:15:03.689Z,20.73
2023-02-17T04:17:31.123Z,23.10
2023-02-17T04:19:58.254Z,22.33
2023-02-17T04:22:25.316Z,21.75
2023-02-17T04:24:52.274Z,25.77
2023-02-17T04:27:19.313Z,24.23
2023-02-17T04:29:46.337Z,21.55
2023-02-17T04:32:13.365Z,24.52
2023-02-17T04:34:40.416Z,23.88
2023-02-17T04:37:07.526Z,24.00
2023-02-17T04:39:34.592Z,28.50
2023-02-17T04:42:01.622Z,25.70
2023-02-17T04:44:28.664Z,25.90
2023-02-17T04:46:55.729Z,28.45
2023-02-17T04:49:23.125Z,22.02
2023-02-17T04:51:50.118Z,22.83
2023-02-17T04:54:17.484Z,22.83
2023-02-17T04:56:44.552Z,27.10
2023-02-17T04:59:11.702Z,22.63
2023-02-17T05:01:38.746Z,24.38
2023-02-17T05:04:06.042Z,25.50
2023-02-17T05:06:33.089Z,22.25
2023-02-17T05:09:00.100Z,25.98
2023-02-17T05:11:27.134Z,22.80
2023-02-17T05:13:54.184Z,21.60
2023-02-17T05:16:21.216Z,21.47
2023-02-17T05:18:48.348Z,21.40
2023-02-17T05:21:15.382Z,21.42
2023-02-17T05:23:42.428Z,21.98
2023-02-17T05:26:10.373Z,24.10
2023-02-17T05:28:37.964Z,19.30
2023-02-17T05:31:08.375Z,18.20
2023-02-17T05:33:35.447Z,17.95
2023-02-17T05:36:07.396Z,19.50
2023-02-17T05:38:34.839Z,19.17
2023-02-17T05:41:01.993Z,18.47
2023-02-17T05:43:29.247Z,20.92
2023-02-17T05:45:56.323Z,17.42
2023-02-17T05:48:23.337Z,20.48
2023-02-17T05:50:50.364Z,24.88
2023-02-17T05:53:17.447Z,21.50
2023-02-17T05:55:44.346Z,30.83
2023-02-17T05:58:11.534Z,25.15
2023-02-17T06:00:38.689Z,26.55
2023-02-17T06:03:05.726Z,23.63
2023-02-17T06:05:32.983Z,24.70
2023-02-17T06:08:00.015Z,25.92
2023-02-17T06:10:27.048Z,24.63
2023-02-17T06:12:54.048Z,26.58
2023-02-17T06:15:21.442Z,23.90
2023-02-17T06:17:48.610Z,22.83
2023-02-17T06:20:15.895Z,26.40
2023-02-17T06:22:43.915Z,25.83
2023-02-17T06:25:11.018Z,26.98
2023-02-17T06:27:38.212Z,27.02
2023-02-17T06:30:06.239Z,25.47
2023-02-17T06:32:34.815Z,23.25
2023-02-17T06:35:01.958Z,30.55
2023-02-17T06:37:30.834Z,21.48
2023-02-17T06:39:57.966Z,19.48
2023-02-17T06:42:25.359Z,20.23
2023-02-17T06:44:52.335Z,19.65
2023-02-17T06:47:19.392Z,19.83
2023-02-17T06:49:46.553Z,22.38
2023-02-17T06:52:13.646Z,24.63
2023-02-17T06:54:40.636Z,16.83
2023-02-17T06:57:07.776Z,17.88
2023-02-17T06:59:34.714Z,17.63
2023-02-17T07:02:02.517Z,21.95
2023-02-17T07:04:29.964Z,16.83
2023-02-17T07:06:57.063Z,21.00
2023-02-17T07:09:24.112Z,11.02
2023-02-17T07:11:51.350Z,12.90
2023-02-17T07:14:18.532Z,12.30
2023-02-17T07:16:45.551Z,13.77
2023-02-17T07:19:13.577Z,16.07
2023-02-17T07:21:40.813Z,16.10
2023-02-17T07:24:08.081Z,12.73
2023-02-17T07:26:40.266Z,14.90
2023-02-17T07:29:08.083Z,16.33
2023-02-17T07:31:35.804Z,14.27
2023-02-17T07:34:04.738Z,17.50
2023-02-17T07:36:32.075Z,16.75
2023-02-17T07:38:59.262Z,13.85
2023-02-17T07:41:28.825Z,12.65
2023-02-17T07:43:57.687Z,13.37
2023-02-17T07:46:25.282Z,18.50
2023-02-17T07:48:52.572Z,14.75
2023-02-17T07:51:22.534Z,16.15
2023-02-17T07:53:51.022Z,15.38
2023-02-17T07:56:21.581Z,13.00
2023-02-17T07:58:49.282Z,14.10
2023-02-17T08:01:19.723Z,10.05
2023-02-17T08:03:48.633Z,12.35
2023-02-17T08:06:24.016Z,11.23
2023-02-17T08:09:10.991Z,11.93
2023-02-17T08:11:57.240Z,14.45
2023-02-17T08:14:26.437Z,12.27
2023-02-17T08:16:53.726Z,10.55
2023-02-17T08:19:21.104Z,13.23
2023-02-17T08:21:48.662Z,11.23
2023-02-17T08:24:16.541Z,11.38
2023-02-17T08:26:43.657Z,11.07
2023-02-17T08:29:10.830Z,17.38
2023-02-17T08:31:38.769Z,13.52
2023-02-17T08:34:09.320Z,14.33
2023-02-17T08:36:39.582Z,18.17
2023-02-17T08:39:11.816Z,17.40
2023-02-17T08:41:40.402Z,14.23
2023-02-17T08:44:13.279Z,15.00
2023-02-17T08:46:41.165Z,17.67
2023-02-17T08:49:08.833Z,14.15
2023-02-17T08:51:36.774Z,13.40
2023-02-17T08:54:06.534Z,19.52
2023-02-17T08:56:34.778Z,14.32
2023-02-17T08:59:01.911Z,18.83
2023-02-17T09:01:29.177Z,16.90
2023-02-17T09:03:58.188Z,19.08
2023-02-17T09:06:35.204Z,16.58
2023-02-17T09:09:04.040Z,15.05
2023-02-17T09:11:31.322Z,17.83
2023-02-17T09:13:58.504Z,19.58
2023-02-17T09:16:25.837Z,18.77
2023-02-17T09:18:53.671Z,19.02
2023-02-17T09:21:23.723Z,18.58
2023-02-17T09:23:50.870Z,15.43
2023-02-17T09:26:19.049Z,17.73
2023-02-17T09:28:46.548Z,16.50
2023-02-17T09:31:17.351Z,18.63
2023-02-17T09:33:45.288Z,18.60
2023-02-17T09:36:14.696Z,18.67
2023-02-17T09:38:42.271Z,15.45
2023-02-17T09:41:19.879Z,17.50
2023-02-17T09:43:47.879Z,16.15
2023-02-17T09:46:24.129Z,18.45
2023-02-17T09:48:54.689Z,19.13
2023-02-17T09:52:00.826Z,18.65
2023-02-17T09:54:43.039Z,21.48
2023-02-17T09:57:15.914Z,17.98
2023-02-17T09:59:49.156Z,21.90
2023-02-17T10:02:39.934Z,20.53
2023-02-17T10:05:10.747Z,17.67
2023-02-17T10:07:47.926Z,18.05
2023-02-17T10:10:20.660Z,21.42
2023-02-17T10:12:54.062Z,22.80
2023-02-17T10:15:31.971Z,21.77
2023-02-17T10:18:04.744Z,13.23
2023-02-17T10:21:02.151Z,16.23
2023-02-17T10:23:29.773Z,16.15
2023-02-17T10:25:59.461Z,18.30
2023-02-17T10:28:49.476Z,22.50
2023-02-17T10:31:45.321Z,22.08
2023-02-17T10:34:34.083Z,18.67
2023-02-17T10:37:14.068Z,18.02
2023-02-17T10:39:50.371Z,15.80
2023-02-17T10:42:25.121Z,18.47
2023-02-17T10:44:56.339Z,22.33
2023-02-17T10:47:23.390Z,23.42
2023-02-17T10:49:53.438Z,24.27
2023-02-17T10:52:40.532Z,26.35
2023-02-17T10:55:23.281Z,24.63
2023-02-17T10:58:14.255Z,28.15
2023-02-17T11:00:42.989Z,24.63
2023-02-17T11:03:25.313Z,27.90
2023-02-17T11:05:58.803Z,23.73
2023-02-17T11:08:39.462Z,23.00
2023-02-17T11:11:15.091Z,23.60
2023-02-17T11:14:01.733Z,24.65
2023-02-17T11:16:35.018Z,25.40
2023-02-17T11:19:02.788Z,24.88
2023-02-17T11:21:30.852Z,25.60
2023-02-17T11:24:05.077Z,24.85
2023-02-17T11:26:36.417Z,23.45
2023-02-17T11:29:17.365Z,20.63
2023-02-17T11:31:59.170Z,22.90
2023-02-17T11:34:29.926Z,24.37
2023-02-17T11:37:09.823Z,20.60
2023-02-17T11:39:40.612Z,22.90
2023-02-17T11:42:17.284Z,20.95
2023-02-17T11:44:44.386Z,24.05
2023-02-17T11:47:25.444Z,24.43
2023-02-17T11:50:11.174Z,25.23
2023-02-17T11:53:00.167Z,18.85
2023-02-17T11:56:25.380Z,18.60
2023-02-17T11:59:29.015Z,22.63
2023-02-17T12:02:14.431Z,23.80
2023-02-17T12:05:09.085Z,21.63
2023-02-17T12:07:47.078Z,23.58
2023-02-17T12:10:36.031Z,23.70
2023-02-17T12:13:03.168Z,24.88
2023-02-17T12:15:59.451Z,19.37
2023-02-17T12:18:35.613Z,25.50
2023-02-17T12:21:10.014Z,26.27
2023-02-17T12:23:45.969Z,21.35
2023-02-17T12:26:39.769Z,22.75
2023-02-17T12:29:09.663Z,22.57
2023-02-17T12:32:03.445Z,24.50
2023-02-17T12:34:45.330Z,23.05
2023-02-17T12:37:25.838Z,25.15
2023-02-17T12:40:02.642Z,24.08
2023-02-17T12:42:48.464Z,22.93
2023-02-17T12:45:23.242Z,21.75
2023-02-17T12:47:54.658Z,23.02
2023-02-17T12:50:31.470Z,23.45
2023-02-17T12:53:05.768Z,28.13
2023-02-17T12:55:48.345Z,26.27
2023-02-17T12:58:21.577Z,24.95
2023-02-17T13:01:00.006Z,30.05
2023-02-17T13:03:31.152Z,27.85
2023-02-17T13:06:24.137Z,32.30
2023-02-17T13:09:03.419Z,28.07
2023-02-17T13:11:35.782Z,26.00
2023-02-17T13:14:25.577Z,26.48
2023-02-17T13:16:53.202Z,27.40
2023-02-17T13:19:31.889Z,24.23
2023-02-17T13:22:02.395Z,27.33
2023-02-17T13:24:37.930Z,25.90
2023-02-17T13:27:34.048Z,24.65
2023-02-17T13:30:24.656Z,21.90
2023-02-17T13:33:24.897Z,23.10
2023-02-17T13:35:51.958Z,21.60
2023-02-17T13:38:33.155Z,22.10
2023-02-17T13:41:04.455Z,23.42
2023-02-17T13:43:40.387Z,19.40
2023-02-17T13:46:10.590Z,18.42
2023-02-17T13:48:37.686Z,21.83
2023-02-17T13:51:24.328Z,18.95
2023-02-17T13:53:52.014Z,20.23
2023-02-17T13:56:28.545Z,23.80
2023-02-17T13:59:11.418Z,17.70
2023-02-17T14:01:42.130Z,20.27
2023-02-17T14:04:25.297Z,21.02
2023-02-17T14:06:56.309Z,23.60
2023-02-17T14:09:26.935Z,23.55
2023-02-17T14:11:55.771Z,19.08
2023-02-17T14:14:34.124Z,21.67
2023-02-17T14:17:05.862Z,21.50
2023-02-17T14:19:47.392Z,21.65
2023-02-17T14:22:32.127Z,24.02
2023-02-17T14:25:13.503Z,24.77
2023-02-17T14:27:45.875Z,23.63
2023-02-17T14:30:37.115Z,21.13
2023-02-17T14:33:24.712Z,22.77
2023-02-17T14:35:55.615Z,23.88
2023-02-17T14:38:26.951Z,25.95
2023-02-17T14:40:56.126Z,22.87
2023-02-17T14:43:23.309Z,18.33
2023-02-17T14:45:51.205Z,16.88
2023-02-17T14:48:18.478Z,19.88
2023-02-17T14:50:46.383Z,42.25
2023-02-17T14:53:49.420Z,21.23
2023-02-17T14:56:31.906Z,21.25
2023-02-17T14:58:59.219Z,19.38
2023-02-17T15:01:26.634Z,18.05
2023-02-17T15:03:54.654Z,23.40
2023-02-17T15:06:25.056Z,19.27
2023-02-17T15:08:54.352Z,22.75
2023-02-17T15:11:27.092Z,19.33
2023-02-17T15:13:54.865Z,22.92
2023-02-17T15:16:22.035Z,21.75
2023-02-17T15:18:51.036Z,18.93
2023-02-17T15:21:24.162Z,23.40
2023-02-17T15:23:51.513Z,23.98
2023-02-17T15:26:18.722Z,21.70
2023-02-17T15:28:45.845Z,20.95
2023-02-17T15:31:15.846Z,20.47
2023-02-17T15:33:44.740Z,25.33
2023-02-17T15:36:17.079Z,19.52
2023-02-17T15:38:44.049Z,21.80
2023-02-17T15:41:20.540Z,21.77
2023-02-17T15:43:51.752Z,18.83
2023-02-17T15:46:20.908Z,21.70
2023-02-17T15:48:49.940Z,23.17
2023-02-17T15:51:19.589Z,20.95
2023-02-17T15:53:47.525Z,21.80
2023-02-17T15:56:21.466Z,25.63
2023-02-17T15:58:49.987Z,23.73
2023-02-17T16:01:36.583Z,20.10
2023-02-17T16:04:04.955Z,23.75
2023-02-17T16:06:32.066Z,24.73
2023-02-17T16:08:59.901Z,24.70
2023-02-17T16:11:27.781Z,26.15
2023-02-17T16:13:55.175Z,25.05
2023-02-17T16:16:37.635Z,24.48
2023-02-17T16:19:04.784Z,28.15
2023-02-17T16:21:31.765Z,28.10
2023-02-17T16:24:00.511Z,28.55
2023-02-17T16:26:35.967Z,27.88
2023-02-17T16:29:11.001Z,28.85
2023-02-17T16:31:38.063Z,26.42
2023-02-17T16:34:05.277Z,31.10
2023-02-17T16:36:35.529Z,26.65
2023-02-17T16:39:12.625Z,24.25
2023-02-17T16:41:39.952Z,26.50
2023-02-17T16:44:08.161Z,24.52
2023-02-17T16:46:37.180Z,23.90
2023-02-17T16:49:24.165Z,26.38
2023-02-17T16:51:57.349Z,27.73
2023-02-17T16:54:25.597Z,26.10
2023-02-17T16:59:36.516Z,27.20
2023-02-17T17:02:03.987Z,27.38
2023-02-17T17:04:31.250Z,21.92
2023-02-17T17:06:58.231Z,22.75
2023-02-17T17:09:25.902Z,18.15
2023-02-17T17:11:53.176Z,19.77
2023-02-17T17:14:21.830Z,18.55
2023-02-17T17:16:58.163Z,23.08
2023-02-17T17:19:25.718Z,21.30
2023-02-17T17:21:53.005Z,22.40
2023-02-17T17:24:20.232Z,23.80
2023-02-17T17:26:50.570Z,20.95
2023-02-17T17:29:19.103Z,23.90
2023-02-17T17:31:46.706Z,27.17
2023-02-17T17:34:13.954Z,23.10
2023-02-17T17:36:46.632Z,24.80
2023-02-17T17:39:16.724Z,26.40
2023-02-17T17:41:44.244Z,25.35
2023-02-17T17:44:11.536Z,23.33
2023-02-17T17:46:40.723Z,35.15
2023-02-17T17:49:10.565Z,24.63
2023-02-17T17:51:41.090Z,27.23
2023-02-17T17:54:11.074Z,24.33
2023-02-17T17:56:45.398Z,27.45
2023-02-17T17:59:14.269Z,30.00
2023-02-17T18:01:42.743Z,25.77
2023-02-17T18:04:11.517Z,24.20
2023-02-17T18:06:46.029Z,33.75
2023-02-17T18:09:30.859Z,28.75
2023-02-17T18:12:02.828Z,28.25
2023-02-17T18:14:30.683Z,29.87
2023-02-17T18:16:58.685Z,28.38
2023-02-17T18:19:26.377Z,31.02
2023-02-17T18:21:53.379Z,29.00
2023-02-17T18:24:20.368Z,32.90
2023-02-17T18:26:47.551Z,29.10
2023-02-17T18:29:14.541Z,28.10
2023-02-17T18:31:41.776Z,31.25
2023-02-17T18:34:08.949Z,25.55
2023-02-17T18:36:35.976Z,30.33
2023-02-17T18:39:04.303Z,29.70
2023-02-17T18:41:34.108Z,27.42
2023-02-17T18:44:03.608Z,34.22
2023-02-17T18:46:31.126Z,30.08
2023-02-17T18:48:58.240Z,30.42
2023-02-17T18:51:27.790Z,29.10
2023-02-17T18:53:56.754Z,30.52
2023-02-17T18:56:26.669Z,33.85
2023-02-17T18:58:55.382Z,26.13
2023-02-17T19:01:24.076Z,35.10
2023-02-17T19:03:52.100Z,30.33
2023-02-17T19:06:23.450Z,28.45
2023-02-17T19:08:51.053Z,33.40
2023-02-17T19:11:19.571Z,29.23
2023-02-17T19:13:47.110Z,32.45
2023-02-17T19:16:20.859Z,31.23
2023-02-17T19:18:48.620Z,32.40
2023-02-17T19:21:16.246Z,31.05
2023-02-17T19:23:44.263Z,34.05
2023-02-17T19:26:13.258Z,30.00
2023-02-17T19:28:41.062Z,31.97
2023-02-17T19:31:10.578Z,29.85
2023-02-17T19:33:38.271Z,31.45
2023-02-17T19:36:11.730Z,28.38
2023-02-17T19:38:39.806Z,35.55
2023-02-17T19:41:09.972Z,33.63
2023-02-17T19:43:37.127Z,35.05
2023-02-17T19:46:04.766Z,36.70
2023-02-17T19:48:33.350Z,36.90
2023-02-17T19:51:04.584Z,36.80
2023-02-17T19:53:35.155Z,33.73
2023-02-17T19:56:12.508Z,32.55
2023-02-17T19:58:41.289Z,35.22
2023-02-17T20:01:11.748Z,33.85
2023-02-17T20:03:39.509Z,34.78
2023-02-17T20:06:09.762Z,28.80
2023-02-17T20:08:37.798Z,28.83
2023-02-17T20:11:07.859Z,30.17
2023-02-17T20:13:45.163Z,28.17
2023-02-17T20:16:15.081Z,28.60
2023-02-17T20:18:45.407Z,32.63
2023-02-17T20:21:15.516Z,23.60
2023-02-17T20:23:42.857Z,29.17
2023-02-17T20:26:16.308Z,31.80
2023-02-17T20:28:43.507Z,32.05
2023-02-17T20:31:12.370Z,29.53
2023-02-17T20:33:40.140Z,33.35
2023-02-17T20:36:08.617Z,33.55
2023-02-17T20:38:37.750Z,32.30
2023-02-17T20:41:06.831Z,32.30
2023-02-17T20:43:34.577Z,31.60
2023-02-17T20:46:01.746Z,31.80
2023-02-17T20:48:28.927Z,32.58
2023-02-17T20:50:56.956Z,29.27
2023-02-17T20:53:25.778Z,28.10
2023-02-17T20:55:53.085Z,29.73
2023-02-17T20:58:20.418Z,24.52
2023-02-17T21:00:47.638Z,25.50
2023-02-17T21:03:14.827Z,28.63
2023-02-17T21:05:42.026Z,31.25
2023-02-17T21:08:09.233Z,28.00
2023-02-17T21:10:36.408Z,31.17
2023-02-17T21:13:03.405Z,28.25
2023-02-17T21:15:30.442Z,30.85
2023-02-17T21:17:57.439Z,33.67
2023-02-17T21:20:24.523Z,33.80
2023-02-17T21:22:51.786Z,32.63
2023-02-17T21:25:18.914Z,33.47
2023-02-17T21:27:46.016Z,31.65
2023-02-17T21:30:14.177Z,36.20
2023-02-17T21:32:41.683Z,36.93
2023-02-17T21:35:10.174Z,41.70
2023-02-17T21:37:39.096Z,37.50
2023-02-17T21:40:10.098Z,34.65
2023-02-17T21:42:56.706Z,34.35
2023-02-17T21:45:24.631Z,40.43
2023-02-17T21:47:52.091Z,31.23
2023-02-17T21:50:19.846Z,36.80
2023-02-17T21:52:47.111Z,34.90
2023-02-17T21:55:14.154Z,39.97
2023-02-17T21:57:41.206Z,32.73
2023-02-17T22:00:09.005Z,40.45
2023-02-17T22:02:45.004Z,35.90
2023-02-17T22:05:12.322Z,38.33
2023-02-17T22:07:39.370Z,32.33
2023-02-17T22:10:07.042Z,35.80
2023-02-17T22:12:37.256Z,38.25
2023-02-17T22:15:06.141Z,34.78
2023-02-17T22:17:34.871Z,36.67
2023-02-17T22:20:02.296Z,37.00
2023-02-17T22:22:29.931Z,35.73
2023-02-17T22:24:57.065Z,35.00
2023-02-17T22:27:24.144Z,33.45
2023-02-17T22:29:51.190Z,53.17
2023-02-17T22:32:18.332Z,33.00
2023-02-17T22:34:45.341Z,34.27
2023-02-17T22:37:12.401Z,33.20
2023-02-17T22:39:39.345Z,34.40
2023-02-17T22:42:06.977Z,34.72
2023-02-17T22:44:33.971Z,29.98
2023-02-17T22:47:00.992Z,37.17
2023-02-17T22:49:28.176Z,34.97
2023-02-17T22:51:55.257Z,35.72
2023-02-17T22:54:22.239Z,34.97
2023-02-17T22:56:49.265Z,33.75
2023-02-17T22:59:16.302Z,36.30
2023-02-17T23:01:43.317Z,36.95
2023-02-17T23:04:12.911Z,35.95
2023-02-17T23:06:39.968Z,34.58
2023-02-17T23:09:08.891Z,30.17
2023-02-17T23:11:52.407Z,34.90
2023-02-17T23:14:32.641Z,35.25
2023-02-17T23:17:05.651Z,33.70
2023-02-17T23:19:33.291Z,33.95
2023-02-17T23:22:03.730Z,29.55
2023-02-17T23:24:31.124Z,29.90
2023-02-17T23:27:00.454Z,34.13
2023-02-17T23:29:30.832Z,34.05
2023-02-17T23:31:59.100Z,37.75
2023-02-17T23:34:26.701Z,41.55
2023-02-17T23:36:53.699Z,35.93
2023-02-17T23:39:20.901Z,38.88
2023-02-17T23:41:48.204Z,32.97
2023-02-17T23:44:15.723Z,42.22
2023-02-17T23:46:44.168Z,33.58
2023-02-17T23:49:16.239Z,32.93
2023-02-17T23:51:44.014Z,32.38
2023-02-17T23:54:10.972Z,35.45
2023-02-17T23:56:38.124Z,33.60
2023-02-17T23:59:06.010Z,36.60
